KEIR

Eugene Island

Eugene Island, Louisiana, USA
METAR KEIR 212335Z AUTO 23008KT 8SM CLR 29/24 A2992 RMK A01
Observed Flight Rules
Jun-21 @ 23:35 UTC (19 minutes ago) Visual Flight Rules
Wind Visibility Clouds
230° at 8 knots 8 miles
  • Clear skies
Temperatures Readings
Current 29°C / 84°F
Dewpoint 24°C / 75°F
Humidity 74%
Altimeter 29.92" Hg
Pressure 1013 hPa
Elevation 28
METAR KEIR 212335Z AUTO 23008KT 8SM CLR 29/24 A2992 RMK A01
Observed Flight Rules
Jun-21 @ 23:35 UTC
(19 minutes ago)
VFR
Wind Visibility
230° at 8 knots 8 miles
Clouds
  • Clear skies
Temperature Dewpoint
29°C / 84°F 24°C / 75°F
Humidity Altimeter Pressure
74% 29.92" Hg 1013 hPa